createdAt,value
2022-08-04T00:00:02.061Z,87.81
2022-08-04T00:01:02.215Z,88.87
2022-08-04T00:02:02.189Z,89.45
2022-08-04T00:03:02.049Z,88.68
2022-08-04T00:04:02.055Z,87.23
2022-08-04T00:05:02.048Z,87.04
2022-08-04T00:06:02.049Z,87.62
2022-08-04T00:07:02.053Z,87.62
2022-08-04T00:08:02.048Z,87.23
2022-08-04T00:09:02.047Z,87.23
2022-08-04T00:10:02.050Z,87.23
2022-08-04T00:11:02.042Z,87.04
2022-08-04T00:12:02.053Z,87.33
2022-08-04T00:13:02.036Z,86.65
2022-08-04T00:14:03.575Z,87.43
2022-08-04T00:15:02.037Z,86.65
2022-08-04T00:16:02.040Z,86.36
2022-08-04T00:17:02.034Z,86.46
2022-08-04T00:18:02.046Z,86.46
2022-08-04T00:19:02.032Z,86.07
2022-08-04T00:20:02.145Z,86.36
2022-08-04T00:21:02.032Z,86.27
2022-08-04T00:22:02.044Z,85.98
2022-08-04T00:23:02.024Z,84.78
2022-08-04T00:24:11.070Z,85.11
2022-08-04T00:25:02.022Z,85.01
2022-08-04T00:26:02.025Z,84.43
2022-08-04T00:27:02.024Z,85.16
2022-08-04T00:28:02.019Z,85.06
2022-08-04T00:29:02.035Z,84.43
2022-08-04T00:30:02.034Z,85.21
2022-08-04T00:31:02.015Z,85.21
2022-08-04T00:32:02.017Z,84.24
2022-08-04T00:33:02.012Z,84.78
2022-08-04T00:34:02.008Z,85.30
2022-08-04T00:35:02.016Z,86.42
2022-08-04T00:36:02.011Z,86.13
2022-08-04T00:37:02.011Z,86.32
2022-08-04T00:38:02.020Z,86.80
2022-08-04T00:39:02.047Z,87.48
2022-08-04T00:40:02.002Z,86.71
2022-08-04T00:41:02.006Z,87.62
2022-08-04T00:42:02.009Z,87.29
2022-08-04T00:43:01.999Z,86.90
2022-08-04T00:44:02.006Z,87.19
2022-08-04T00:45:01.995Z,86.71
2022-08-04T00:46:15.350Z,87.77
2022-08-04T00:47:01.997Z,86.90
2022-08-04T00:48:01.993Z,87.00
2022-08-04T00:49:01.991Z,87.67
2022-08-04T00:50:01.992Z,88.35
2022-08-04T00:51:01.990Z,87.67
2022-08-04T00:52:32.253Z,86.90
2022-08-04T00:53:01.984Z,87.19
2022-08-04T00:54:01.988Z,86.22
2022-08-04T00:55:05.401Z,86.52
2022-08-04T00:56:01.983Z,86.42
2022-08-04T00:57:01.982Z,86.80
2022-08-04T00:58:01.980Z,86.71
2022-08-04T00:59:01.981Z,86.42
2022-08-04T01:00:01.977Z,85.45
2022-08-04T01:01:02.075Z,85.84
2022-08-04T01:02:01.986Z,85.64
2022-08-04T01:03:01.971Z,85.45
2022-08-04T01:04:01.971Z,86.13
2022-08-04T01:05:01.966Z,85.55
2022-08-04T01:06:01.971Z,85.74
2022-08-04T01:07:01.969Z,85.74
2022-08-04T01:08:01.964Z,85.55
2022-08-04T01:09:01.965Z,85.26
2022-08-04T01:10:01.960Z,85.64
2022-08-04T01:11:01.962Z,86.13
2022-08-04T01:12:01.954Z,85.26
2022-08-04T01:13:01.959Z,84.97
2022-08-04T01:14:01.959Z,85.36
2022-08-04T01:15:01.953Z,84.97
2022-08-04T01:16:01.960Z,85.36
2022-08-04T01:17:01.954Z,85.26
2022-08-04T01:18:01.947Z,84.88
2022-08-04T01:19:01.946Z,85.26
2022-08-04T01:20:01.944Z,85.06
2022-08-04T01:21:01.974Z,84.68
2022-08-04T01:22:01.951Z,85.16
2022-08-04T01:23:01.942Z,85.16
2022-08-04T01:24:01.942Z,84.58
2022-08-04T01:25:02.350Z,85.55
2022-08-04T01:26:01.939Z,85.26
2022-08-04T01:27:01.933Z,85.36
2022-08-04T01:28:01.943Z,86.42
2022-08-04T01:29:01.934Z,86.96
2022-08-04T01:30:01.931Z,86.13
2022-08-04T01:31:01.931Z,85.12
2022-08-04T01:32:01.931Z,85.60
2022-08-04T01:33:01.923Z,85.31
2022-08-04T01:34:04.513Z,85.89
2022-08-04T01:35:01.924Z,85.99
2022-08-04T01:36:01.956Z,85.60
2022-08-04T01:37:01.919Z,85.12
2022-08-04T01:38:01.922Z,85.60
2022-08-04T01:39:01.998Z,85.31
2022-08-04T01:40:01.913Z,85.22
2022-08-04T01:41:01.909Z,85.12
2022-08-04T01:42:01.915Z,84.64
2022-08-04T01:43:01.908Z,85.41
2022-08-04T01:44:01.910Z,85.31
2022-08-04T01:45:01.909Z,85.31
2022-08-04T01:46:01.901Z,85.50
2022-08-04T01:47:01.904Z,86.28
2022-08-04T01:48:01.898Z,85.99
2022-08-04T01:49:01.900Z,85.89
2022-08-04T01:50:01.897Z,85.99
2022-08-04T01:51:01.898Z,86.28
2022-08-04T01:52:01.893Z,86.57
2022-08-04T01:53:01.890Z,86.28
2022-08-04T01:54:01.897Z,86.38
2022-08-04T01:55:01.890Z,87.05
2022-08-04T01:56:01.884Z,86.38
2022-08-04T01:57:01.887Z,85.89
2022-08-04T01:58:01.882Z,86.28
2022-08-04T01:59:01.884Z,85.80
2022-08-04T02:00:01.893Z,86.08
2022-08-04T02:01:01.988Z,86.96
2022-08-04T02:02:02.061Z,86.08
2022-08-04T02:03:01.928Z,86.38
2022-08-04T02:04:21.788Z,86.96
2022-08-04T02:05:01.868Z,86.86
2022-08-04T02:06:03.374Z,86.57
2022-08-04T02:07:01.869Z,86.28
2022-08-04T02:08:01.865Z,86.28
2022-08-04T02:09:01.866Z,86.38
2022-08-04T02:10:01.864Z,86.38
2022-08-04T02:11:01.858Z,86.86
2022-08-04T02:12:01.861Z,87.53
2022-08-04T02:13:01.857Z,86.66
2022-08-04T02:14:01.857Z,86.76
2022-08-04T02:15:01.854Z,86.57
2022-08-04T02:16:01.848Z,86.76
2022-08-04T02:17:01.846Z,86.57
2022-08-04T02:18:01.846Z,86.38
2022-08-04T02:19:01.847Z,87.53
2022-08-04T02:20:01.852Z,86.76
2022-08-04T02:21:01.843Z,86.57
2022-08-04T02:22:01.841Z,86.96
2022-08-04T02:23:01.837Z,86.57
2022-08-04T02:24:01.837Z,86.28
2022-08-04T02:25:01.835Z,86.38
2022-08-04T02:26:01.834Z,86.57
2022-08-04T02:27:01.833Z,87.05
2022-08-04T02:28:01.828Z,87.44
2022-08-04T02:29:01.842Z,87.53
2022-08-04T02:30:01.825Z,87.92
2022-08-04T02:31:01.822Z,88.31
2022-08-04T02:32:01.821Z,88.02
2022-08-04T02:33:01.874Z,88.79
2022-08-04T02:34:01.821Z,89.32
2022-08-04T02:35:01.813Z,89.17
2022-08-04T02:36:02.346Z,88.98
2022-08-04T02:37:01.815Z,88.55
2022-08-04T02:38:01.807Z,87.88
2022-08-04T02:39:01.856Z,88.55
2022-08-04T02:40:01.809Z,88.75
2022-08-04T02:41:01.806Z,88.45
2022-08-04T02:42:01.804Z,89.07
2022-08-04T02:43:01.797Z,89.51
2022-08-04T02:44:01.799Z,89.42
2022-08-04T02:45:01.795Z,89.32
2022-08-04T02:46:01.796Z,89.03
2022-08-04T02:47:01.793Z,89.13
2022-08-04T02:48:08.199Z,89.81
2022-08-04T02:49:01.794Z,90.00
2022-08-04T02:50:01.788Z,90.19
2022-08-04T02:51:01.788Z,90.09
2022-08-04T02:52:01.785Z,90.38
2022-08-04T02:53:01.779Z,90.67
2022-08-04T02:54:01.780Z,90.00
2022-08-04T02:55:01.774Z,89.90
2022-08-04T02:56:01.778Z,89.90
2022-08-04T02:57:01.776Z,89.81
2022-08-04T02:58:01.769Z,90.29
2022-08-04T02:59:01.779Z,90.29
2022-08-04T03:00:01.770Z,90.19
2022-08-04T03:01:01.815Z,90.34
2022-08-04T03:02:01.763Z,90.53
2022-08-04T03:03:01.760Z,90.63
2022-08-04T03:04:01.798Z,90.53
2022-08-04T03:05:01.757Z,90.63
2022-08-04T03:06:01.950Z,90.82
2022-08-04T03:07:01.758Z,90.24
2022-08-04T03:08:01.749Z,90.53
2022-08-04T03:09:01.750Z,91.30
2022-08-04T03:10:01.747Z,90.92
2022-08-04T03:11:01.745Z,91.02
2022-08-04T03:12:01.743Z,90.63
2022-08-04T03:13:01.739Z,90.34
2022-08-04T03:14:01.739Z,90.53
2022-08-04T03:15:01.742Z,90.44
2022-08-04T03:16:01.731Z,90.72
2022-08-04T03:17:01.733Z,91.20
2022-08-04T03:18:01.729Z,90.63
2022-08-04T03:19:01.730Z,91.20
2022-08-04T03:20:01.723Z,91.30
2022-08-04T03:21:01.725Z,91.20
2022-08-04T03:22:01.751Z,90.92
2022-08-04T03:23:13.139Z,90.15
2022-08-04T03:24:01.723Z,90.63
2022-08-04T03:25:01.722Z,90.72
2022-08-04T03:26:01.711Z,90.82
2022-08-04T03:27:01.714Z,91.20
2022-08-04T03:28:01.698Z,91.30
2022-08-04T03:29:01.706Z,90.82
2022-08-04T03:30:01.709Z,90.72
2022-08-04T03:31:01.701Z,91.02
2022-08-04T03:32:01.703Z,91.11
2022-08-04T03:33:01.699Z,91.20
2022-08-04T03:34:01.697Z,91.30
2022-08-04T03:35:01.714Z,91.02
2022-08-04T03:36:01.689Z,90.92
2022-08-04T03:37:01.690Z,91.11
2022-08-04T03:38:01.685Z,90.34
2022-08-04T03:39:01.734Z,90.53
2022-08-04T03:40:01.776Z,91.20
2022-08-04T03:41:01.678Z,90.92
2022-08-04T03:42:04.117Z,91.69
2022-08-04T03:43:01.676Z,91.45
2022-08-04T03:44:01.687Z,91.40
2022-08-04T03:45:01.671Z,91.78
2022-08-04T03:46:01.670Z,91.55
2022-08-04T03:47:01.667Z,91.55
2022-08-04T03:48:01.662Z,91.93
2022-08-04T03:49:01.663Z,91.93
2022-08-04T03:50:01.745Z,91.93
2022-08-04T03:51:01.655Z,91.93
2022-08-04T03:52:01.655Z,92.13
2022-08-04T03:53:01.653Z,92.22
2022-08-04T03:54:01.652Z,92.51
2022-08-04T03:55:01.680Z,92.13
2022-08-04T03:56:01.640Z,92.13
2022-08-04T03:57:01.642Z,92.13
2022-08-04T03:58:01.639Z,92.51
2022-08-04T03:59:01.641Z,92.71
2022-08-04T04:00:01.710Z,92.32
2022-08-04T04:01:01.648Z,92.41
2022-08-04T04:02:06.578Z,92.22
2022-08-04T04:03:01.629Z,92.32
2022-08-04T04:04:01.630Z,92.13
2022-08-04T04:05:01.687Z,92.13
2022-08-04T04:06:02.333Z,92.13
2022-08-04T04:07:01.623Z,92.03
2022-08-04T04:08:03.941Z,92.22
2022-08-04T04:09:01.624Z,92.41
2022-08-04T04:10:07.055Z,92.61
2022-08-04T04:11:01.612Z,91.83
2022-08-04T04:12:01.610Z,92.51
2022-08-04T04:13:01.606Z,92.90
2022-08-04T04:14:01.613Z,92.61
2022-08-04T04:15:01.619Z,92.80
2022-08-04T04:16:01.599Z,92.51
2022-08-04T04:17:01.597Z,92.32
2022-08-04T04:18:01.593Z,92.03
2022-08-04T04:19:01.601Z,92.13
2022-08-04T04:20:01.588Z,92.22
2022-08-04T04:21:01.587Z,92.71
2022-08-04T04:22:01.586Z,92.51
2022-08-04T04:23:01.582Z,93.19
2022-08-04T04:24:01.580Z,92.61
2022-08-04T04:25:01.578Z,92.51
2022-08-04T04:26:01.575Z,92.71
2022-08-04T04:27:01.577Z,93.09
2022-08-04T04:28:46.426Z,92.90
2022-08-04T04:29:03.392Z,92.41
2022-08-04T04:30:01.569Z,92.61
2022-08-04T04:31:01.565Z,93.28
2022-08-04T04:32:01.570Z,92.71
2022-08-04T04:33:01.561Z,92.71
2022-08-04T04:34:01.559Z,92.61
2022-08-04T04:35:01.554Z,92.99
2022-08-04T04:36:01.551Z,93.57
2022-08-04T04:37:01.550Z,92.99
2022-08-04T04:38:01.545Z,92.80
2022-08-04T04:39:01.625Z,92.61
2022-08-04T04:40:03.677Z,92.71
2022-08-04T04:41:01.538Z,93.09
2022-08-04T04:42:01.539Z,93.38
2022-08-04T04:43:01.537Z,93.19
2022-08-04T04:44:01.561Z,93.66
2022-08-04T04:45:01.531Z,94.15
2022-08-04T04:46:01.530Z,93.86
2022-08-04T04:47:01.529Z,94.24
2022-08-04T04:48:07.158Z,93.66
2022-08-04T04:49:01.521Z,94.24
2022-08-04T04:50:01.516Z,95.02
2022-08-04T04:51:01.507Z,94.63
2022-08-04T04:52:01.513Z,94.15
2022-08-04T04:53:01.510Z,94.73
2022-08-04T04:54:01.511Z,93.66
2022-08-04T04:55:01.507Z,94.92
2022-08-04T04:56:01.500Z,94.92
2022-08-04T04:57:01.508Z,93.96
2022-08-04T04:58:01.496Z,93.76
2022-08-04T04:59:01.499Z,93.09
2022-08-04T05:00:01.490Z,93.57
2022-08-04T05:01:01.492Z,93.19
2022-08-04T05:02:04.213Z,93.04
2022-08-04T05:03:04.919Z,93.52
2022-08-04T05:04:01.488Z,93.62
2022-08-04T05:05:01.479Z,93.23
2022-08-04T05:06:01.478Z,92.65
2022-08-04T05:07:01.481Z,92.75
2022-08-04T05:08:01.477Z,93.43
2022-08-04T05:09:01.475Z,93.81
2022-08-04T05:10:01.472Z,92.65
2022-08-04T05:11:01.467Z,93.04
2022-08-04T05:12:02.450Z,94.10
2022-08-04T05:14:32.042Z,93.52
2022-08-04T05:14:38.327Z,94.10
2022-08-04T05:15:01.458Z,92.75
2022-08-04T05:16:01.452Z,93.13
2022-08-04T05:17:01.455Z,91.98
2022-08-04T05:18:01.461Z,91.78
2022-08-04T05:19:01.447Z,92.08
2022-08-04T05:20:01.448Z,92.56
2022-08-04T05:21:01.440Z,92.36
2022-08-04T05:22:01.444Z,91.88
2022-08-04T05:23:01.437Z,92.12
2022-08-04T05:24:01.438Z,92.02
2022-08-04T05:25:01.432Z,92.50
2022-08-04T05:26:01.430Z,92.60
2022-08-04T05:27:01.432Z,91.35
2022-08-04T05:28:01.425Z,91.54
2022-08-04T05:29:01.427Z,91.54
2022-08-04T05:30:01.421Z,91.83
2022-08-04T05:31:01.419Z,90.87
2022-08-04T05:32:01.413Z,90.87
2022-08-04T05:33:01.415Z,90.96
2022-08-04T05:34:01.414Z,90.48
2022-08-04T05:35:01.414Z,90.96
2022-08-04T05:36:20.822Z,91.16
2022-08-04T05:37:01.409Z,90.96
2022-08-04T05:38:01.943Z,89.90
2022-08-04T05:39:01.430Z,89.75
2022-08-04T05:40:01.398Z,89.17
2022-08-04T05:41:01.396Z,90.62
2022-08-04T05:42:04.663Z,90.23
2022-08-04T05:43:01.392Z,89.37
2022-08-04T05:44:01.391Z,89.95
2022-08-04T05:45:01.389Z,89.95
2022-08-04T05:46:01.384Z,90.05
2022-08-04T05:47:01.389Z,91.49
2022-08-04T05:48:01.384Z,90.14
2022-08-04T05:49:01.381Z,89.47
2022-08-04T05:50:03.158Z,88.59
2022-08-04T05:51:01.442Z,87.73
2022-08-04T05:52:01.373Z,88.73
2022-08-04T05:53:01.537Z,86.52
2022-08-04T05:54:01.370Z,87.29
2022-08-04T05:55:01.386Z,88.06
2022-08-04T05:56:01.372Z,89.41
2022-08-04T05:57:01.363Z,88.25
2022-08-04T05:58:01.357Z,86.71
2022-08-04T05:59:01.366Z,86.42
2022-08-04T06:00:10.364Z,88.54
2022-08-04T06:01:01.366Z,88.93
2022-08-04T06:02:01.420Z,89.79
2022-08-04T06:03:01.353Z,90.28
2022-08-04T06:04:01.353Z,87.48
2022-08-04T06:05:01.342Z,88.29
2022-08-04T06:06:01.342Z,86.75
2022-08-04T06:07:01.343Z,86.94
2022-08-04T06:08:12.108Z,87.43
2022-08-04T06:09:01.342Z,86.56
2022-08-04T06:10:01.338Z,86.65
2022-08-04T06:11:01.331Z,86.46
2022-08-04T06:12:03.714Z,86.36
2022-08-04T06:13:01.327Z,86.31
2022-08-04T06:14:01.326Z,86.21
2022-08-04T06:15:01.334Z,86.69
2022-08-04T06:16:01.482Z,85.83
2022-08-04T06:17:01.321Z,84.86
2022-08-04T06:18:35.447Z,86.99
2022-08-04T06:20:02.664Z,86.51
2022-08-04T06:20:19.610Z,86.31
2022-08-04T06:21:01.312Z,85.15
2022-08-04T06:22:01.309Z,85.00
2022-08-04T06:23:01.310Z,86.06
2022-08-04T06:24:04.536Z,85.87
2022-08-04T06:25:01.329Z,85.39
2022-08-04T06:26:01.302Z,85.29
2022-08-04T06:27:01.303Z,86.06
2022-08-04T06:28:01.301Z,84.61
2022-08-04T06:29:01.303Z,85.24
2022-08-04T06:30:01.293Z,85.82
2022-08-04T06:31:01.295Z,85.42
2022-08-04T06:32:28.385Z,83.88
2022-08-04T06:33:03.531Z,82.23
2022-08-04T06:34:01.292Z,83.59
2022-08-04T06:35:01.287Z,82.81
2022-08-04T06:36:01.285Z,81.56
2022-08-04T06:37:01.284Z,81.21
2022-08-04T06:38:02.023Z,80.82
2022-08-04T06:39:01.385Z,81.70
2022-08-04T06:40:01.278Z,82.37
2022-08-04T06:41:01.273Z,81.89
2022-08-04T06:42:21.598Z,81.98
2022-08-04T06:43:01.276Z,82.66
2022-08-04T06:44:01.272Z,81.70
2022-08-04T06:45:01.278Z,81.98
2022-08-04T06:46:01.267Z,81.98
2022-08-04T06:47:01.266Z,81.79
2022-08-04T06:48:01.267Z,80.92
2022-08-04T06:49:01.267Z,80.34
2022-08-04T06:51:27.119Z,79.90
2022-08-04T06:51:31.939Z,80.28
2022-08-04T06:52:01.255Z,79.60
2022-08-04T06:53:01.258Z,79.80
2022-08-04T06:54:01.258Z,81.15
2022-08-04T06:55:01.253Z,81.35
2022-08-04T06:56:01.256Z,81.73
2022-08-04T06:57:01.320Z,80.38
2022-08-04T06:58:03.413Z,79.80
2022-08-04T06:59:01.254Z,80.67
2022-08-04T07:00:01.265Z,79.60
2022-08-04T07:01:01.247Z,80.28
2022-08-04T07:02:01.273Z,80.09
2022-08-04T07:03:01.250Z,80.03
2022-08-04T07:04:01.240Z,79.64
2022-08-04T07:05:05.851Z,79.16
2022-08-04T07:06:06.168Z,78.29
2022-08-04T07:07:01.242Z,78.58
2022-08-04T07:08:01.238Z,77.80
2022-08-04T07:09:01.242Z,78.71
2022-08-04T07:10:01.221Z,78.52
2022-08-04T07:11:01.232Z,79.39
2022-08-04T07:12:01.223Z,78.33
2022-08-04T07:13:01.230Z,78.81
2022-08-04T07:14:01.231Z,79.78
2022-08-04T07:15:01.224Z,78.71
2022-08-04T07:16:01.226Z,79.20
2022-08-04T07:17:01.221Z,78.71
2022-08-04T07:18:01.229Z,78.13
2022-08-04T07:19:10.398Z,77.84
2022-08-04T07:20:01.214Z,78.61
2022-08-04T07:21:01.221Z,79.10
2022-08-04T07:22:18.833Z,80.07
2022-08-04T07:23:01.224Z,76.68
2022-08-04T07:24:01.216Z,76.91
2022-08-04T07:25:01.415Z,77.01
2022-08-04T07:26:11.761Z,78.85
2022-08-04T07:27:01.212Z,80.01
2022-08-04T07:28:01.208Z,80.30
2022-08-04T07:29:01.211Z,79.14
2022-08-04T07:30:01.207Z,79.14
2022-08-04T07:31:01.203Z,79.53
2022-08-04T07:32:01.205Z,78.07
2022-08-04T07:33:01.207Z,76.07
2022-08-04T07:34:16.963Z,77.92
2022-08-04T07:35:01.200Z,77.14
2022-08-04T07:36:04.393Z,76.37
2022-08-04T07:37:01.194Z,75.98
2022-08-04T07:38:01.198Z,77.72
2022-08-04T07:39:01.245Z,77.72
2022-08-04T07:40:01.240Z,78.79
2022-08-04T07:41:01.356Z,77.04
2022-08-04T07:42:02.185Z,75.98
2022-08-04T07:43:01.195Z,76.60
2022-08-04T07:44:01.193Z,76.69
2022-08-04T07:45:01.193Z,77.57
2022-08-04T07:46:01.192Z,76.98
2022-08-04T07:47:01.189Z,76.79
2022-08-04T07:48:05.399Z,76.05
2022-08-04T07:49:01.193Z,75.18
2022-08-04T07:50:01.186Z,74.40
2022-08-04T07:51:01.185Z,75.18
2022-08-04T07:52:01.187Z,74.79
2022-08-04T07:53:52.602Z,74.40
2022-08-04T07:54:01.183Z,73.75
2022-08-04T07:55:01.184Z,72.88
2022-08-04T07:56:01.182Z,73.08
2022-08-04T07:57:01.179Z,73.08
2022-08-04T07:58:01.181Z,74.05
2022-08-04T07:59:01.195Z,72.69
2022-08-04T08:00:01.178Z,71.81
2022-08-04T08:01:01.173Z,72.69
2022-08-04T08:02:01.184Z,72.59
2022-08-04T08:03:01.233Z,73.60
2022-08-04T08:04:01.249Z,73.18
2022-08-04T08:05:01.190Z,73.50
2022-08-04T08:06:17.756Z,71.66
2022-08-04T08:07:01.174Z,70.68
2022-08-04T08:08:01.173Z,72.43
2022-08-04T08:09:12.648Z,72.92
2022-08-04T08:10:01.171Z,72.53
2022-08-04T08:11:01.171Z,72.63
2022-08-04T08:12:37.865Z,72.04
2022-08-04T08:13:01.169Z,71.26
2022-08-04T08:14:01.172Z,72.53
2022-08-04T08:15:01.170Z,72.82
2022-08-04T08:16:01.176Z,72.14
2022-08-04T08:17:01.173Z,72.04
2022-08-04T08:18:01.183Z,72.72
2022-08-04T08:19:01.172Z,71.01
2022-08-04T08:20:01.171Z,71.30
2022-08-04T08:21:01.167Z,70.52
2022-08-04T08:22:01.979Z,71.20
2022-08-04T08:23:01.174Z,70.72
2022-08-04T08:24:01.167Z,70.72
2022-08-04T08:25:01.164Z,71.01
2022-08-04T08:26:01.165Z,70.72
2022-08-04T08:27:01.167Z,70.65
2022-08-04T08:28:01.165Z,71.01
2022-08-04T08:29:01.167Z,70.52
2022-08-04T08:30:01.165Z,70.81
2022-08-04T08:31:01.163Z,69.58
2022-08-04T08:32:07.424Z,69.87
2022-08-04T08:33:01.166Z,70.75
2022-08-04T08:34:01.168Z,69.20
2022-08-04T08:35:01.163Z,69.00
2022-08-04T08:36:01.162Z,69.20
2022-08-04T08:37:01.163Z,68.90
2022-08-04T08:38:01.162Z,70.36
2022-08-04T08:39:01.194Z,68.51
2022-08-04T08:40:01.164Z,67.67
2022-08-04T08:41:01.160Z,69.52
2022-08-04T08:42:01.165Z,69.52
2022-08-04T08:43:59.934Z,69.52
2022-08-04T08:44:06.750Z,69.91
2022-08-04T08:45:01.162Z,68.45
2022-08-04T08:46:01.160Z,69.36
2022-08-04T08:47:01.162Z,67.80
2022-08-04T08:48:05.691Z,66.73
2022-08-04T08:49:01.163Z,66.14
2022-08-04T08:50:04.492Z,68.38
2022-08-04T08:51:01.160Z,66.93
2022-08-04T08:52:01.162Z,65.17
2022-08-04T08:53:02.767Z,67.15
2022-08-04T08:54:01.164Z,66.27
2022-08-04T08:55:01.161Z,66.83
2022-08-04T08:56:01.163Z,65.56
2022-08-04T08:57:01.168Z,66.17
2022-08-04T08:58:01.163Z,65.20
2022-08-04T08:59:01.165Z,66.56
2022-08-04T09:00:01.162Z,65.78
2022-08-04T09:01:01.162Z,65.59
2022-08-04T09:02:01.223Z,65.01
2022-08-04T09:03:04.005Z,66.21
2022-08-04T09:04:01.173Z,65.92
2022-08-04T09:05:01.163Z,65.72
2022-08-04T09:06:01.165Z,66.02
2022-08-04T09:07:01.166Z,66.60
2022-08-04T09:08:01.164Z,65.43
2022-08-04T09:09:01.174Z,65.92
2022-08-04T09:10:01.167Z,66.14
2022-08-04T09:11:01.163Z,64.58
2022-08-04T09:12:01.168Z,64.87
2022-08-04T09:13:01.166Z,65.17
2022-08-04T09:14:01.173Z,64.19
2022-08-04T09:15:01.196Z,63.70
2022-08-04T09:16:01.166Z,64.42
2022-08-04T09:17:01.171Z,64.22
2022-08-04T09:18:01.171Z,65.20
2022-08-04T09:19:01.173Z,64.61
2022-08-04T09:20:01.174Z,64.03
2022-08-04T09:21:01.169Z,62.79
2022-08-04T09:22:01.172Z,63.93
2022-08-04T09:23:01.172Z,62.89
2022-08-04T09:24:01.176Z,63.96
2022-08-04T09:25:01.199Z,64.45
2022-08-04T09:26:01.175Z,64.90
2022-08-04T09:27:01.175Z,63.05
2022-08-04T09:28:05.835Z,63.64
2022-08-04T09:29:01.176Z,63.73
2022-08-04T09:30:01.185Z,63.34
2022-08-04T09:31:01.173Z,63.54
2022-08-04T09:32:07.134Z,64.51
2022-08-04T09:33:01.177Z,62.76
2022-08-04T09:34:01.181Z,62.89
2022-08-04T09:35:03.209Z,62.60
2022-08-04T09:36:01.186Z,61.91
2022-08-04T09:37:01.182Z,61.82
2022-08-04T09:38:01.184Z,62.70
2022-08-04T09:39:01.217Z,63.38
2022-08-04T09:40:01.186Z,62.63
2022-08-04T09:41:01.217Z,62.82
2022-08-04T09:42:01.188Z,62.13
2022-08-04T09:43:01.186Z,61.97
2022-08-04T09:44:52.419Z,63.34
2022-08-04T09:45:06.103Z,60.28
2022-08-04T09:46:01.186Z,60.67
2022-08-04T09:47:01.250Z,62.33
2022-08-04T09:48:01.189Z,63.15
2022-08-04T09:49:01.188Z,62.53
2022-08-04T09:50:01.189Z,63.44
2022-08-04T09:51:01.191Z,62.16
2022-08-04T09:52:01.196Z,61.48
2022-08-04T09:53:01.194Z,60.31
2022-08-04T09:54:01.195Z,60.11
2022-08-04T09:55:01.195Z,60.11
2022-08-04T09:56:03.253Z,62.66
2022-08-04T09:57:01.195Z,62.16
2022-08-04T09:58:01.197Z,61.97
2022-08-04T09:59:01.199Z,61.71
2022-08-04T10:00:01.845Z,63.89
2022-08-04T10:01:01.197Z,60.27
2022-08-04T10:02:01.201Z,60.27
2022-08-04T10:03:01.282Z,60.37
2022-08-04T10:04:01.205Z,60.47
2022-08-04T10:05:01.205Z,60.86
2022-08-04T10:06:01.204Z,62.82
2022-08-04T10:07:01.215Z,61.35
2022-08-04T10:08:15.390Z,60.30
2022-08-04T10:09:01.211Z,58.80
2022-08-04T10:10:01.213Z,58.80
2022-08-04T10:11:01.210Z,59.29
2022-08-04T10:12:01.219Z,59.61
2022-08-04T10:13:01.222Z,62.16
2022-08-04T10:14:01.220Z,61.70
2022-08-04T10:15:01.216Z,61.60
2022-08-04T10:16:01.222Z,60.03
2022-08-04T10:17:01.225Z,61.02
2022-08-04T10:18:01.233Z,60.52
2022-08-04T10:19:08.070Z,59.45
2022-08-04T10:20:01.229Z,59.74
2022-08-04T10:21:06.964Z,59.06
2022-08-04T10:22:28.740Z,60.03
2022-08-04T10:23:11.039Z,60.03
2022-08-04T10:24:01.235Z,59.06
2022-08-04T10:25:01.239Z,58.86
2022-08-04T10:26:06.965Z,59.45
2022-08-04T10:27:01.242Z,61.87
2022-08-04T10:28:01.246Z,59.52
2022-08-04T10:29:01.243Z,60.30
2022-08-04T10:30:01.248Z,58.64
2022-08-04T10:31:01.245Z,59.98
2022-08-04T10:32:01.259Z,59.19
2022-08-04T10:33:01.251Z,58.25
2022-08-04T10:34:01.255Z,59.35
2022-08-04T10:35:01.255Z,58.17
2022-08-04T10:36:01.257Z,58.57
2022-08-04T10:37:01.258Z,57.71
2022-08-04T10:38:02.305Z,56.05
2022-08-04T10:39:01.320Z,57.81
2022-08-04T10:40:01.314Z,59.77
2022-08-04T10:41:01.267Z,58.40
2022-08-04T10:42:01.272Z,57.84
2022-08-04T10:43:01.271Z,57.35
2022-08-04T10:44:01.469Z,57.74
2022-08-04T10:45:01.274Z,58.82
2022-08-04T10:46:01.274Z,58.65
2022-08-04T10:47:01.280Z,58.55
2022-08-04T10:48:01.672Z,57.67
2022-08-04T10:49:01.283Z,56.37
2022-08-04T10:50:01.289Z,57.54
2022-08-04T10:51:01.289Z,55.78
2022-08-04T10:52:01.288Z,55.81
2022-08-04T10:53:01.287Z,55.32
2022-08-04T10:54:01.297Z,56.59
2022-08-04T10:55:01.295Z,58.29
2022-08-04T10:56:07.948Z,57.01
2022-08-04T10:57:01.299Z,56.62
2022-08-04T10:58:01.304Z,58.48
2022-08-04T10:59:01.306Z,57.24
2022-08-04T11:00:03.317Z,55.27
2022-08-04T11:01:01.307Z,55.76
2022-08-04T11:02:03.763Z,54.49
2022-08-04T11:03:01.371Z,55.57
2022-08-04T11:04:01.317Z,54.39
2022-08-04T11:05:01.439Z,54.00
2022-08-04T11:06:01.326Z,54.00
2022-08-04T11:07:01.324Z,55.49
2022-08-04T11:08:01.323Z,54.22
2022-08-04T11:09:01.331Z,55.79
2022-08-04T11:10:01.333Z,54.44
2022-08-04T11:11:01.334Z,55.62
2022-08-04T11:12:02.353Z,54.83
2022-08-04T11:13:01.340Z,55.52
2022-08-04T11:14:01.342Z,54.25
2022-08-04T11:15:01.345Z,56.01
2022-08-04T11:16:01.346Z,53.95
2022-08-04T11:17:01.342Z,53.19
2022-08-04T11:18:01.355Z,52.99
2022-08-04T11:19:01.355Z,52.70
2022-08-04T11:20:24.776Z,53.29
2022-08-04T11:21:01.359Z,53.19
2022-08-04T11:22:01.365Z,52.82
2022-08-04T11:23:01.368Z,52.62
2022-08-04T11:24:01.373Z,53.91
2022-08-04T11:25:01.373Z,52.53
2022-08-04T11:26:01.376Z,51.05
2022-08-04T11:27:01.382Z,52.33
2022-08-04T11:28:01.382Z,52.72
2022-08-04T11:29:03.786Z,52.43
2022-08-04T11:30:01.403Z,52.33
2022-08-04T11:31:01.389Z,50.68
2022-08-04T11:32:01.394Z,53.12
2022-08-04T11:33:01.395Z,53.14
2022-08-04T11:34:01.402Z,52.33
2022-08-04T11:35:01.403Z,51.07
2022-08-04T11:36:01.403Z,51.18
2022-08-04T11:37:01.415Z,51.47
2022-08-04T11:38:01.410Z,55.53
2022-08-04T11:39:01.481Z,50.90
2022-08-04T11:40:01.418Z,51.92
2022-08-04T11:41:02.965Z,51.03
2022-08-04T11:42:01.429Z,49.87
2022-08-04T11:43:01.429Z,49.65
2022-08-04T11:44:05.774Z,50.66
2022-08-04T11:45:01.502Z,51.15
2022-08-04T11:46:01.440Z,50.68
2022-08-04T11:47:01.449Z,51.59
2022-08-04T11:48:01.459Z,49.82
2022-08-04T11:49:02.291Z,47.45
2022-08-04T11:50:01.457Z,46.76
2022-08-04T11:51:01.462Z,47.08
2022-08-04T11:52:01.471Z,48.96
2022-08-04T11:53:01.474Z,50.24
2022-08-04T11:54:02.292Z,47.16
2022-08-04T11:55:01.482Z,47.38
2022-08-04T11:56:09.423Z,46.69
2022-08-04T11:57:01.501Z,47.08
2022-08-04T11:58:01.499Z,46.07
2022-08-04T11:59:01.515Z,46.09
2022-08-04T12:00:04.192Z,47.06
2022-08-04T12:01:01.518Z,45.30
2022-08-04T12:02:01.598Z,43.73
2022-08-04T12:03:01.537Z,46.00
2022-08-04T12:04:04.325Z,45.01
2022-08-04T12:05:01.556Z,43.94
2022-08-04T12:06:01.551Z,45.82
2022-08-04T12:07:21.855Z,44.81
2022-08-04T12:08:01.568Z,44.54
2022-08-04T12:09:01.575Z,44.64
2022-08-04T12:10:01.574Z,45.74
2022-08-04T12:11:01.790Z,46.91
2022-08-04T12:12:01.589Z,44.75
2022-08-04T12:13:02.488Z,46.33
2022-08-04T12:14:01.601Z,46.33
2022-08-04T12:15:01.607Z,43.77
2022-08-04T12:16:01.613Z,43.74
2022-08-04T12:17:01.622Z,42.16
2022-08-04T12:18:02.663Z,43.45
2022-08-04T12:19:01.639Z,41.77
2022-08-04T12:20:04.902Z,41.69
2022-08-04T12:21:01.649Z,41.39
2022-08-04T12:22:01.679Z,41.20
2022-08-04T12:23:01.661Z,42.60
2022-08-04T12:24:01.669Z,44.87
2022-08-04T12:25:01.676Z,41.59
2022-08-04T12:26:01.681Z,42.76
2022-08-04T12:27:01.692Z,41.79
2022-08-04T12:28:01.693Z,41.39
2022-08-04T12:29:10.579Z,41.00
2022-08-04T12:30:57.760Z,42.70
2022-08-04T12:31:05.213Z,41.39
2022-08-04T12:32:01.725Z,42.08
2022-08-04T12:33:01.730Z,43.74
2022-08-04T12:34:04.594Z,44.04
2022-08-04T12:35:01.742Z,43.05
2022-08-04T12:36:10.935Z,42.58
2022-08-04T12:37:01.759Z,43.57
2022-08-04T12:38:01.765Z,42.66
2022-08-04T12:39:01.845Z,44.04
2022-08-04T12:40:29.707Z,41.38
2022-08-04T12:41:01.783Z,41.17
2022-08-04T12:42:01.820Z,42.48
2022-08-04T12:43:01.796Z,41.57
2022-08-04T12:44:01.803Z,42.19
2022-08-04T12:45:01.807Z,42.29
2022-08-04T12:46:01.813Z,41.17
2022-08-04T12:47:36.341Z,43.35
2022-08-04T12:48:01.829Z,43.41
2022-08-04T12:49:01.843Z,45.08
2022-08-04T12:50:02.737Z,43.01
2022-08-04T12:51:01.844Z,44.89
2022-08-04T12:52:08.676Z,45.67